sensor_id;sensor_type;location;lat;lon;timestamp;P1;durP1;ratioP1;P2;durP2;ratioP2
65871;SDS011;52653;50.080;21.992;2024-03-23T00:56:10;22.40;;;15.80;;
65871;SDS011;52653;50.080;21.992;2024-03-23T00:58:42;20.40;;;16.20;;
65871;SDS011;52653;50.080;21.992;2024-03-23T01:01:13;19.00;;;15.50;;
65871;SDS011;52653;50.080;21.992;2024-03-23T01:03:45;22.40;;;16.30;;
65871;SDS011;52653;50.080;21.992;2024-03-23T01:06:17;24.20;;;16.00;;
65871;SDS011;52653;50.080;21.992;2024-03-23T01:08:49;21.60;;;16.30;;
65871;SDS011;52653;50.080;21.992;2024-03-23T01:11:21;22.30;;;16.10;;
65871;SDS011;52653;50.080;21.992;2024-03-23T01:13:54;20.50;;;15.40;;
65871;SDS011;52653;50.080;21.992;2024-03-23T01:16:26;20.70;;;16.00;;
65871;SDS011;52653;50.080;21.992;2024-03-23T01:18:58;20.60;;;15.50;;
65871;SDS011;52653;50.080;21.992;2024-03-23T01:21:30;22.90;;;16.30;;
65871;SDS011;52653;50.080;21.992;2024-03-23T01:24:02;21.10;;;16.20;;
65871;SDS011;52653;50.080;21.992;2024-03-23T01:26:34;23.50;;;16.80;;
65871;SDS011;52653;50.080;21.992;2024-03-23T01:29:06;21.00;;;15.90;;
65871;SDS011;52653;50.080;21.992;2024-03-23T01:31:38;22.30;;;15.70;;
65871;SDS011;52653;50.080;21.992;2024-03-23T01:34:09;21.60;;;15.10;;
65871;SDS011;52653;50.080;21.992;2024-03-23T01:36:41;20.40;;;14.90;;
65871;SDS011;52653;50.080;21.992;2024-03-23T01:39:13;22.30;;;15.80;;
65871;SDS011;52653;50.080;21.992;2024-03-23T01:41:45;20.40;;;15.40;;
65871;SDS011;52653;50.080;21.992;2024-03-23T01:44:17;20.70;;;15.40;;
65871;SDS011;52653;50.080;21.992;2024-03-23T01:46:48;21.10;;;15.50;;
65871;SDS011;52653;50.080;21.992;2024-03-23T01:49:20;22.10;;;15.20;;
65871;SDS011;52653;50.080;21.992;2024-03-23T01:51:52;21.50;;;15.20;;
65871;SDS011;52653;50.080;21.992;2024-03-23T01:54:24;21.50;;;15.40;;
65871;SDS011;52653;50.080;21.992;2024-03-23T01:56:57;20.10;;;15.40;;
65871;SDS011;52653;50.080;21.992;2024-03-23T01:59:29;24.40;;;16.30;;
65871;SDS011;52653;50.080;21.992;2024-03-23T02:02:11;21.70;;;16.50;;
65871;SDS011;52653;50.080;21.992;2024-03-23T02:04:43;20.60;;;15.60;;
65871;SDS011;52653;50.080;21.992;2024-03-23T02:07:15;20.90;;;14.90;;
65871;SDS011;52653;50.080;21.992;2024-03-23T02:09:46;20.20;;;14.90;;
65871;SDS011;52653;50.080;21.992;2024-03-23T02:12:18;21.00;;;16.40;;
65871;SDS011;52653;50.080;21.992;2024-03-23T02:14:54;21.90;;;16.30;;
65871;SDS011;52653;50.080;21.992;2024-03-23T02:17:30;20.20;;;14.90;;
65871;SDS011;52653;50.080;21.992;2024-03-23T02:20:04;21.40;;;15.60;;
65871;SDS011;52653;50.080;21.992;2024-03-23T02:22:39;19.20;;;14.00;;
65871;SDS011;52653;50.080;21.992;2024-03-23T02:25:11;20.20;;;14.70;;
65871;SDS011;52653;50.080;21.992;2024-03-23T02:27:43;19.80;;;15.30;;
65871;SDS011;52653;50.080;21.992;2024-03-23T02:30:14;21.60;;;15.70;;
65871;SDS011;52653;50.080;21.992;2024-03-23T02:32:46;19.70;;;15.30;;
65871;SDS011;52653;50.080;21.992;2024-03-23T02:35:18;19.70;;;15.30;;
65871;SDS011;52653;50.080;21.992;2024-03-23T02:37:50;21.40;;;15.10;;
65871;SDS011;52653;50.080;21.992;2024-03-23T02:40:23;20.90;;;15.00;;
65871;SDS011;52653;50.080;21.992;2024-03-23T02:42:55;21.00;;;15.20;;
65871;SDS011;52653;50.080;21.992;2024-03-23T02:45:27;21.30;;;15.00;;
65871;SDS011;52653;50.080;21.992;2024-03-23T02:47:59;21.70;;;16.00;;
65871;SDS011;52653;50.080;21.992;2024-03-23T02:50:30;21.10;;;16.20;;
65871;SDS011;52653;50.080;21.992;2024-03-23T02:53:02;21.80;;;15.50;;
65871;SDS011;52653;50.080;21.992;2024-03-23T02:55:34;20.10;;;15.40;;
65871;SDS011;52653;50.080;21.992;2024-03-23T02:58:07;22.40;;;16.10;;
65871;SDS011;52653;50.080;21.992;2024-03-23T03:00:38;21.90;;;15.90;;
65871;SDS011;52653;50.080;21.992;2024-03-23T03:03:10;19.90;;;15.70;;
65871;SDS011;52653;50.080;21.992;2024-03-23T03:05:42;23.00;;;16.30;;
65871;SDS011;52653;50.080;21.992;2024-03-23T03:08:21;22.80;;;15.20;;
65871;SDS011;52653;50.080;21.992;2024-03-23T03:10:53;21.90;;;15.60;;
65871;SDS011;52653;50.080;21.992;2024-03-23T03:13:25;21.20;;;16.10;;
65871;SDS011;52653;50.080;21.992;2024-03-23T03:15:56;19.10;;;14.90;;
65871;SDS011;52653;50.080;21.992;2024-03-23T03:18:28;23.60;;;15.90;;
65871;SDS011;52653;50.080;21.992;2024-03-23T03:21:00;20.40;;;15.50;;
65871;SDS011;52653;50.080;21.992;2024-03-23T03:23:33;22.10;;;16.20;;
65871;SDS011;52653;50.080;21.992;2024-03-23T03:26:05;21.10;;;15.50;;
65871;SDS011;52653;50.080;21.992;2024-03-23T03:28:36;19.70;;;14.40;;
65871;SDS011;52653;50.080;21.992;2024-03-23T03:31:08;20.30;;;15.50;;
65871;SDS011;52653;50.080;21.992;2024-03-23T03:33:40;22.60;;;16.40;;
65871;SDS011;52653;50.080;21.992;2024-03-23T03:36:11;22.30;;;15.60;;
65871;SDS011;52653;50.080;21.992;2024-03-23T03:38:43;22.00;;;15.20;;
65871;SDS011;52653;50.080;21.992;2024-03-23T03:41:15;21.70;;;15.70;;
65871;SDS011;52653;50.080;21.992;2024-03-23T03:43:50;22.10;;;15.60;;
65871;SDS011;52653;50.080;21.992;2024-03-23T03:46:22;20.50;;;15.60;;
65871;SDS011;52653;50.080;21.992;2024-03-23T03:48:53;20.80;;;15.50;;
65871;SDS011;52653;50.080;21.992;2024-03-23T03:51:25;23.80;;;15.60;;
65871;SDS011;52653;50.080;21.992;2024-03-23T03:53:57;23.10;;;15.00;;
65871;SDS011;52653;50.080;21.992;2024-03-23T03:56:28;20.30;;;15.20;;
65871;SDS011;52653;50.080;21.992;2024-03-23T03:59:03;22.90;;;16.20;;
65871;SDS011;52653;50.080;21.992;2024-03-23T04:01:35;21.90;;;15.10;;
65871;SDS011;52653;50.080;21.992;2024-03-23T04:04:06;22.30;;;15.50;;
65871;SDS011;52653;50.080;21.992;2024-03-23T04:06:38;21.50;;;15.90;;
65871;SDS011;52653;50.080;21.992;2024-03-23T04:09:13;20.50;;;14.90;;
65871;SDS011;52653;50.080;21.992;2024-03-23T04:11:44;21.60;;;16.00;;
65871;SDS011;52653;50.080;21.992;2024-03-23T04:14:17;20.30;;;15.40;;
65871;SDS011;52653;50.080;21.992;2024-03-23T04:16:51;21.50;;;16.50;;
65871;SDS011;52653;50.080;21.992;2024-03-23T04:19:24;20.10;;;15.70;;
65871;SDS011;52653;50.080;21.992;2024-03-23T04:21:56;20.20;;;15.30;;
65871;SDS011;52653;50.080;21.992;2024-03-23T04:24:28;20.10;;;15.50;;
65871;SDS011;52653;50.080;21.992;2024-03-23T04:27:02;21.50;;;16.00;;
65871;SDS011;52653;50.080;21.992;2024-03-23T04:29:36;24.40;;;16.50;;
65871;SDS011;52653;50.080;21.992;2024-03-23T04:32:08;21.10;;;15.60;;
65871;SDS011;52653;50.080;21.992;2024-03-23T04:34:40;22.70;;;15.40;;
65871;SDS011;52653;50.080;21.992;2024-03-23T04:37:13;23.30;;;16.20;;
65871;SDS011;52653;50.080;21.992;2024-03-23T04:39:45;21.50;;;16.20;;
65871;SDS011;52653;50.080;21.992;2024-03-23T04:42:16;21.80;;;16.40;;
65871;SDS011;52653;50.080;21.992;2024-03-23T04:44:48;19.90;;;16.00;;
65871;SDS011;52653;50.080;21.992;2024-03-23T04:47:20;23.20;;;16.50;;
65871;SDS011;52653;50.080;21.992;2024-03-23T04:49:52;22.80;;;16.60;;
65871;SDS011;52653;50.080;21.992;2024-03-23T04:52:23;21.20;;;15.50;;
65871;SDS011;52653;50.080;21.992;2024-03-23T04:54:55;22.10;;;16.70;;
65871;SDS011;52653;50.080;21.992;2024-03-23T04:57:27;21.80;;;15.10;;
65871;SDS011;52653;50.080;21.992;2024-03-23T04:59:59;22.30;;;15.90;;
65871;SDS011;52653;50.080;21.992;2024-03-23T05:02:33;20.80;;;15.50;;
65871;SDS011;52653;50.080;21.992;2024-03-23T05:05:06;21.90;;;15.80;;
65871;SDS011;52653;50.080;21.992;2024-03-23T05:07:38;20.90;;;15.20;;
65871;SDS011;52653;50.080;21.992;2024-03-23T05:10:10;20.90;;;16.70;;
65871;SDS011;52653;50.080;21.992;2024-03-23T05:12:42;23.10;;;16.10;;
65871;SDS011;52653;50.080;21.992;2024-03-23T05:15:14;20.00;;;16.10;;
65871;SDS011;52653;50.080;21.992;2024-03-23T05:17:46;22.10;;;16.40;;
65871;SDS011;52653;50.080;21.992;2024-03-23T05:20:18;22.20;;;15.50;;
65871;SDS011;52653;50.080;21.992;2024-03-23T05:22:50;22.80;;;16.90;;
65871;SDS011;52653;50.080;21.992;2024-03-23T05:25:23;22.10;;;16.40;;
65871;SDS011;52653;50.080;21.992;2024-03-23T05:27:54;22.00;;;16.60;;
65871;SDS011;52653;50.080;21.992;2024-03-23T05:30:26;21.90;;;16.20;;
65871;SDS011;52653;50.080;21.992;2024-03-23T05:32:58;22.70;;;16.80;;
65871;SDS011;52653;50.080;21.992;2024-03-23T05:35:30;22.40;;;17.20;;
65871;SDS011;52653;50.080;21.992;2024-03-23T05:38:01;21.40;;;16.30;;
65871;SDS011;52653;50.080;21.992;2024-03-23T05:40:35;23.70;;;16.40;;
65871;SDS011;52653;50.080;21.992;2024-03-23T05:43:08;22.00;;;16.70;;
65871;SDS011;52653;50.080;21.992;2024-03-23T05:45:40;20.90;;;15.90;;
65871;SDS011;52653;50.080;21.992;2024-03-23T05:48:12;22.20;;;16.40;;
65871;SDS011;52653;50.080;21.992;2024-03-23T05:50:43;21.00;;;15.50;;
65871;SDS011;52653;50.080;21.992;2024-03-23T05:53:15;21.20;;;16.30;;
65871;SDS011;52653;50.080;21.992;2024-03-23T05:55:49;22.80;;;15.50;;
65871;SDS011;52653;50.080;21.992;2024-03-23T05:58:22;21.90;;;16.20;;
65871;SDS011;52653;50.080;21.992;2024-03-23T06:00:58;24.10;;;17.30;;
65871;SDS011;52653;50.080;21.992;2024-03-23T06:03:31;21.50;;;16.50;;
65871;SDS011;52653;50.080;21.992;2024-03-23T06:06:04;23.10;;;16.90;;
65871;SDS011;52653;50.080;21.992;2024-03-23T06:08:40;22.50;;;16.30;;
65871;SDS011;52653;50.080;21.992;2024-03-23T06:11:12;21.50;;;16.40;;
65871;SDS011;52653;50.080;21.992;2024-03-23T06:13:43;21.90;;;15.60;;
65871;SDS011;52653;50.080;21.992;2024-03-23T06:16:15;23.00;;;16.40;;
65871;SDS011;52653;50.080;21.992;2024-03-23T06:18:52;22.00;;;16.60;;
65871;SDS011;52653;50.080;21.992;2024-03-23T06:21:24;22.00;;;16.00;;
65871;SDS011;52653;50.080;21.992;2024-03-23T06:23:56;20.10;;;15.40;;
65871;SDS011;52653;50.080;21.992;2024-03-23T06:26:28;22.30;;;15.60;;
65871;SDS011;52653;50.080;21.992;2024-03-23T06:29:00;22.40;;;16.70;;
65871;SDS011;52653;50.080;21.992;2024-03-23T06:31:32;21.80;;;15.40;;
65871;SDS011;52653;50.080;21.992;2024-03-23T06:34:03;23.10;;;17.00;;
65871;SDS011;52653;50.080;21.992;2024-03-23T06:36:35;20.10;;;16.30;;
65871;SDS011;52653;50.080;21.992;2024-03-23T06:39:07;20.30;;;15.50;;
65871;SDS011;52653;50.080;21.992;2024-03-23T06:41:41;24.30;;;16.30;;
65871;SDS011;52653;50.080;21.992;2024-03-23T06:44:13;21.90;;;16.20;;
65871;SDS011;52653;50.080;21.992;2024-03-23T06:46:44;19.90;;;15.40;;
65871;SDS011;52653;50.080;21.992;2024-03-23T06:49:28;23.40;;;15.20;;
65871;SDS011;52653;50.080;21.992;2024-03-23T06:52:20;22.90;;;15.60;;
65871;SDS011;52653;50.080;21.992;2024-03-23T06:54:55;20.90;;;15.60;;
65871;SDS011;52653;50.080;21.992;2024-03-23T06:57:43;23.20;;;17.00;;
65871;SDS011;52653;50.080;21.992;2024-03-23T07:00:26;24.50;;;16.10;;
65871;SDS011;52653;50.080;21.992;2024-03-23T07:03:01;22.20;;;16.40;;
65871;SDS011;52653;50.080;21.992;2024-03-23T07:05:41;21.70;;;16.20;;
65871;SDS011;52653;50.080;21.992;2024-03-23T07:08:22;21.30;;;15.70;;
65871;SDS011;52653;50.080;21.992;2024-03-23T07:10:57;19.60;;;15.30;;
65871;SDS011;52653;50.080;21.992;2024-03-23T07:13:28;21.60;;;15.60;;
65871;SDS011;52653;50.080;21.992;2024-03-23T07:16:03;21.40;;;16.10;;
65871;SDS011;52653;50.080;21.992;2024-03-23T07:18:38;21.20;;;15.30;;
65871;SDS011;52653;50.080;21.992;2024-03-23T07:21:14;21.90;;;16.20;;
65871;SDS011;52653;50.080;21.992;2024-03-23T07:23:48;20.30;;;15.30;;
65871;SDS011;52653;50.080;21.992;2024-03-23T07:26:40;20.90;;;15.10;;
65871;SDS011;52653;50.080;21.992;2024-03-23T07:29:33;21.00;;;15.60;;
65871;SDS011;52653;50.080;21.992;2024-03-23T07:32:15;19.90;;;15.50;;
65871;SDS011;52653;50.080;21.992;2024-03-23T07:35:06;21.70;;;15.60;;
65871;SDS011;52653;50.080;21.992;2024-03-23T07:37:58;20.30;;;14.50;;
65871;SDS011;52653;50.080;21.992;2024-03-23T07:40:37;20.40;;;15.00;;
65871;SDS011;52653;50.080;21.992;2024-03-23T07:43:14;19.80;;;15.60;;
65871;SDS011;52653;50.080;21.992;2024-03-23T07:45:52;21.90;;;16.30;;
65871;SDS011;52653;50.080;21.992;2024-03-23T07:48:24;21.70;;;15.80;;
65871;SDS011;52653;50.080;21.992;2024-03-23T07:51:00;20.40;;;15.50;;
65871;SDS011;52653;50.080;21.992;2024-03-23T07:53:33;20.90;;;16.00;;
65871;SDS011;52653;50.080;21.992;2024-03-23T07:56:06;19.90;;;15.20;;
65871;SDS011;52653;50.080;21.992;2024-03-23T07:58:42;20.30;;;15.90;;
65871;SDS011;52653;50.080;21.992;2024-03-23T08:01:15;23.40;;;16.10;;
65871;SDS011;52653;50.080;21.992;2024-03-23T08:03:47;23.90;;;15.70;;
65871;SDS011;52653;50.080;21.992;2024-03-23T08:06:21;22.90;;;15.60;;
65871;SDS011;52653;50.080;21.992;2024-03-23T08:08:54;21.30;;;16.30;;
65871;SDS011;52653;50.080;21.992;2024-03-23T08:11:29;22.20;;;16.10;;
65871;SDS011;52653;50.080;21.992;2024-03-23T08:14:02;20.30;;;15.50;;
65871;SDS011;52653;50.080;21.992;2024-03-23T08:16:37;18.10;;;14.70;;
65871;SDS011;52653;50.080;21.992;2024-03-23T08:19:10;21.00;;;16.30;;
65871;SDS011;52653;50.080;21.992;2024-03-23T08:21:42;22.40;;;16.50;;
65871;SDS011;52653;50.080;21.992;2024-03-23T08:24:26;22.60;;;15.60;;
65871;SDS011;52653;50.080;21.992;2024-03-23T08:26:59;21.90;;;16.00;;
65871;SDS011;52653;50.080;21.992;2024-03-23T08:29:31;19.00;;;14.90;;
65871;SDS011;52653;50.080;21.992;2024-03-23T08:32:03;20.60;;;15.10;;
65871;SDS011;52653;50.080;21.992;2024-03-23T08:34:35;20.10;;;14.60;;
65871;SDS011;52653;50.080;21.992;2024-03-23T08:37:10;20.50;;;15.50;;
65871;SDS011;52653;50.080;21.992;2024-03-23T08:39:43;18.20;;;14.70;;
65871;SDS011;52653;50.080;21.992;2024-03-23T08:42:17;17.60;;;14.40;;
65871;SDS011;52653;50.080;21.992;2024-03-23T08:44:48;20.20;;;15.10;;
65871;SDS011;52653;50.080;21.992;2024-03-23T08:47:20;20.30;;;15.20;;
65871;SDS011;52653;50.080;21.992;2024-03-23T08:49:52;20.20;;;14.90;;
65871;SDS011;52653;50.080;21.992;2024-03-23T08:52:24;20.20;;;17.50;;
65871;SDS011;52653;50.080;21.992;2024-03-23T08:54:57;19.80;;;15.90;;
65871;SDS011;52653;50.080;21.992;2024-03-23T08:57:29;18.40;;;15.40;;
65871;SDS011;52653;50.080;21.992;2024-03-23T09:00:01;18.00;;;15.10;;
65871;SDS011;52653;50.080;21.992;2024-03-23T09:02:34;18.50;;;14.30;;
65871;SDS011;52653;50.080;21.992;2024-03-23T09:05:06;19.20;;;14.20;;
65871;SDS011;52653;50.080;21.992;2024-03-23T09:07:38;15.80;;;13.50;;
65871;SDS011;52653;50.080;21.992;2024-03-23T09:10:15;17.90;;;14.80;;
65871;SDS011;52653;50.080;21.992;2024-03-23T09:12:47;16.00;;;13.30;;
65871;SDS011;52653;50.080;21.992;2024-03-23T09:15:28;16.70;;;13.80;;
65871;SDS011;52653;50.080;21.992;2024-03-23T09:18:00;17.40;;;13.70;;
65871;SDS011;52653;50.080;21.992;2024-03-23T09:20:33;16.90;;;13.40;;
65871;SDS011;52653;50.080;21.992;2024-03-23T09:23:13;15.80;;;13.30;;
65871;SDS011;52653;50.080;21.992;2024-03-23T09:25:47;17.90;;;14.80;;
65871;SDS011;52653;50.080;21.992;2024-03-23T09:28:28;15.60;;;13.10;;
65871;SDS011;52653;50.080;21.992;2024-03-23T09:31:08;19.20;;;14.30;;
65871;SDS011;52653;50.080;21.992;2024-03-23T09:33:43;17.20;;;14.50;;
65871;SDS011;52653;50.080;21.992;2024-03-23T09:36:17;18.60;;;13.80;;
65871;SDS011;52653;50.080;21.992;2024-03-23T09:38:49;18.20;;;14.20;;
65871;SDS011;52653;50.080;21.992;2024-03-23T09:41:21;16.80;;;13.70;;
65871;SDS011;52653;50.080;21.992;2024-03-23T09:43:53;18.70;;;14.90;;
65871;SDS011;52653;50.080;21.992;2024-03-23T09:46:25;18.90;;;14.20;;
65871;SDS011;52653;50.080;21.992;2024-03-23T09:48:57;16.90;;;14.30;;
65871;SDS011;52653;50.080;21.992;2024-03-23T09:51:32;19.60;;;14.60;;
65871;SDS011;52653;50.080;21.992;2024-03-23T09:54:05;18.00;;;14.10;;
65871;SDS011;52653;50.080;21.992;2024-03-23T09:56:36;18.00;;;14.50;;
65871;SDS011;52653;50.080;21.992;2024-03-23T09:59:14;19.40;;;14.50;;
65871;SDS011;52653;50.080;21.992;2024-03-23T10:01:45;19.10;;;15.10;;
65871;SDS011;52653;50.080;21.992;2024-03-23T10:07:12;17.20;;;14.60;;
65871;SDS011;52653;50.080;21.992;2024-03-23T10:09:46;18.50;;;14.70;;
65871;SDS011;52653;50.080;21.992;2024-03-23T10:12:20;19.10;;;15.20;;
65871;SDS011;52653;50.080;21.992;2024-03-23T10:15:03;20.40;;;15.70;;
65871;SDS011;52653;50.080;21.992;2024-03-23T10:17:59;21.00;;;15.40;;
65871;SDS011;52653;50.080;21.992;2024-03-23T10:20:50;20.00;;;15.20;;
65871;SDS011;52653;50.080;21.992;2024-03-23T10:23:35;18.30;;;15.10;;
65871;SDS011;52653;50.080;21.992;2024-03-23T10:26:16;17.40;;;14.10;;
65871;SDS011;52653;50.080;21.992;2024-03-23T10:28:54;16.90;;;13.30;;
65871;SDS011;52653;50.080;21.992;2024-03-23T10:31:30;16.40;;;13.60;;
65871;SDS011;52653;50.080;21.992;2024-03-23T10:34:02;17.90;;;14.30;;
65871;SDS011;52653;50.080;21.992;2024-03-23T10:36:42;17.50;;;13.70;;
65871;SDS011;52653;50.080;21.992;2024-03-23T10:39:14;19.20;;;14.60;;
65871;SDS011;52653;50.080;21.992;2024-03-23T10:41:46;17.20;;;13.60;;
65871;SDS011;52653;50.080;21.992;2024-03-23T10:44:20;18.30;;;14.10;;
65871;SDS011;52653;50.080;21.992;2024-03-23T10:46:58;16.70;;;14.00;;
65871;SDS011;52653;50.080;21.992;2024-03-23T10:49:31;17.40;;;14.30;;
65871;SDS011;52653;50.080;21.992;2024-03-23T10:52:04;17.70;;;14.00;;
65871;SDS011;52653;50.080;21.992;2024-03-23T10:54:42;17.20;;;14.90;;
65871;SDS011;52653;50.080;21.992;2024-03-23T10:57:21;18.10;;;14.10;;
65871;SDS011;52653;50.080;21.992;2024-03-23T10:59:57;18.90;;;14.70;;
65871;SDS011;52653;50.080;21.992;2024-03-23T11:02:29;16.90;;;13.80;;
65871;SDS011;52653;50.080;21.992;2024-03-23T11:05:01;18.90;;;13.80;;
65871;SDS011;52653;50.080;21.992;2024-03-23T11:07:53;17.10;;;13.40;;
65871;SDS011;52653;50.080;21.992;2024-03-23T11:10:28;19.80;;;14.70;;
65871;SDS011;52653;50.080;21.992;2024-03-23T11:13:20;16.30;;;13.00;;
65871;SDS011;52653;50.080;21.992;2024-03-23T11:15:53;16.30;;;13.10;;
65871;SDS011;52653;50.080;21.992;2024-03-23T11:18:25;17.80;;;14.20;;
65871;SDS011;52653;50.080;21.992;2024-03-23T11:20:56;18.30;;;14.50;;
65871;SDS011;52653;50.080;21.992;2024-03-23T11:23:31;15.60;;;13.00;;
65871;SDS011;52653;50.080;21.992;2024-03-23T11:26:03;16.00;;;13.30;;
65871;SDS011;52653;50.080;21.992;2024-03-23T11:28:38;17.80;;;13.50;;
65871;SDS011;52653;50.080;21.992;2024-03-23T11:31:11;16.50;;;13.50;;
65871;SDS011;52653;50.080;21.992;2024-03-23T11:33:44;15.80;;;13.00;;
65871;SDS011;52653;50.080;21.992;2024-03-23T11:36:19;17.40;;;14.40;;
65871;SDS011;52653;50.080;21.992;2024-03-23T11:38:53;17.70;;;13.70;;
65871;SDS011;52653;50.080;21.992;2024-03-23T11:41:24;16.50;;;12.90;;
65871;SDS011;52653;50.080;21.992;2024-03-23T11:43:56;16.70;;;13.30;;
65871;SDS011;52653;50.080;21.992;2024-03-23T11:46:28;20.30;;;14.50;;
65871;SDS011;52653;50.080;21.992;2024-03-23T11:49:00;17.60;;;13.70;;
65871;SDS011;52653;50.080;21.992;2024-03-23T11:51:31;16.10;;;13.20;;
65871;SDS011;52653;50.080;21.992;2024-03-23T11:54:08;17.20;;;13.90;;
65871;SDS011;52653;50.080;21.992;2024-03-23T11:56:40;17.60;;;13.40;;
65871;SDS011;52653;50.080;21.992;2024-03-23T11:59:33;16.10;;;13.00;;
65871;SDS011;52653;50.080;21.992;2024-03-23T12:02:09;15.40;;;12.90;;
65871;SDS011;52653;50.080;21.992;2024-03-23T12:04:43;15.40;;;13.20;;
65871;SDS011;52653;50.080;21.992;2024-03-23T12:07:16;16.90;;;13.40;;
65871;SDS011;52653;50.080;21.992;2024-03-23T12:10:02;17.50;;;13.40;;
65871;SDS011;52653;50.080;21.992;2024-03-23T12:12:38;15.50;;;12.70;;
65871;SDS011;52653;50.080;21.992;2024-03-23T12:15:10;18.50;;;13.90;;
65871;SDS011;52653;50.080;21.992;2024-03-23T12:17:44;17.70;;;13.20;;
65871;SDS011;52653;50.080;21.992;2024-03-23T12:20:16;19.10;;;13.40;;
65871;SDS011;52653;50.080;21.992;2024-03-23T12:22:48;27.00;;;18.50;;
65871;SDS011;52653;50.080;21.992;2024-03-23T12:25:23;18.10;;;14.30;;
65871;SDS011;52653;50.080;21.992;2024-03-23T12:27:54;18.30;;;13.70;;
65871;SDS011;52653;50.080;21.992;2024-03-23T12:30:29;16.40;;;14.00;;
65871;SDS011;52653;50.080;21.992;2024-03-23T12:33:00;15.30;;;13.10;;
65871;SDS011;52653;50.080;21.992;2024-03-23T12:35:33;19.00;;;17.00;;
65871;SDS011;52653;50.080;21.992;2024-03-23T12:38:05;22.10;;;16.20;;
65871;SDS011;52653;50.080;21.992;2024-03-23T12:40:37;17.40;;;12.90;;
65871;SDS011;52653;50.080;21.992;2024-03-23T12:43:09;15.70;;;12.20;;
65871;SDS011;52653;50.080;21.992;2024-03-23T12:45:41;16.20;;;11.30;;
65871;SDS011;52653;50.080;21.992;2024-03-23T12:48:16;15.20;;;11.50;;
65871;SDS011;52653;50.080;21.992;2024-03-23T12:50:48;14.10;;;11.30;;
65871;SDS011;52653;50.080;21.992;2024-03-23T12:53:24;16.30;;;12.10;;
65871;SDS011;52653;50.080;21.992;2024-03-23T12:55:56;15.40;;;12.10;;
65871;SDS011;52653;50.080;21.992;2024-03-23T12:58:27;15.00;;;11.70;;
65871;SDS011;52653;50.080;21.992;2024-03-23T13:00:59;16.10;;;12.30;;
65871;SDS011;52653;50.080;21.992;2024-03-23T13:03:34;16.60;;;11.80;;
65871;SDS011;52653;50.080;21.992;2024-03-23T13:06:06;15.90;;;11.50;;
65871;SDS011;52653;50.080;21.992;2024-03-23T13:08:42;15.00;;;11.60;;
65871;SDS011;52653;50.080;21.992;2024-03-23T13:11:16;15.40;;;11.90;;
65871;SDS011;52653;50.080;21.992;2024-03-23T13:13:47;16.30;;;11.50;;
65871;SDS011;52653;50.080;21.992;2024-03-23T13:16:20;17.10;;;12.10;;
65871;SDS011;52653;50.080;21.992;2024-03-23T13:18:52;15.10;;;12.20;;
65871;SDS011;52653;50.080;21.992;2024-03-23T13:21:24;15.90;;;12.50;;
65871;SDS011;52653;50.080;21.992;2024-03-23T13:23:56;15.30;;;11.90;;
65871;SDS011;52653;50.080;21.992;2024-03-23T13:26:27;15.10;;;11.60;;
65871;SDS011;52653;50.080;21.992;2024-03-23T13:28:59;14.50;;;11.90;;
65871;SDS011;52653;50.080;21.992;2024-03-23T13:31:31;15.20;;;12.00;;
65871;SDS011;52653;50.080;21.992;2024-03-23T13:34:03;14.50;;;12.10;;
65871;SDS011;52653;50.080;21.992;2024-03-23T13:36:35;15.80;;;12.30;;
65871;SDS011;52653;50.080;21.992;2024-03-23T13:39:06;13.90;;;11.80;;
65871;SDS011;52653;50.080;21.992;2024-03-23T13:41:41;14.50;;;12.00;;
65871;SDS011;52653;50.080;21.992;2024-03-23T13:44:13;15.60;;;12.60;;
65871;SDS011;52653;50.080;21.992;2024-03-23T13:46:45;15.40;;;12.60;;
65871;SDS011;52653;50.080;21.992;2024-03-23T13:49:25;15.20;;;12.00;;
65871;SDS011;52653;50.080;21.992;2024-03-23T13:52:01;16.40;;;12.70;;
65871;SDS011;52653;50.080;21.992;2024-03-23T13:54:33;19.80;;;13.30;;
65871;SDS011;52653;50.080;21.992;2024-03-23T13:57:06;15.50;;;12.20;;
65871;SDS011;52653;50.080;21.992;2024-03-23T13:59:39;14.60;;;11.70;;
65871;SDS011;52653;50.080;21.992;2024-03-23T14:02:11;15.20;;;12.20;;
65871;SDS011;52653;50.080;21.992;2024-03-23T14:04:43;15.90;;;12.90;;
65871;SDS011;52653;50.080;21.992;2024-03-23T14:07:15;17.50;;;12.60;;
65871;SDS011;52653;50.080;21.992;2024-03-23T14:09:48;15.90;;;12.10;;
65871;SDS011;52653;50.080;21.992;2024-03-23T14:12:24;16.00;;;12.10;;
65871;SDS011;52653;50.080;21.992;2024-03-23T14:15:00;14.80;;;11.80;;
65871;SDS011;52653;50.080;21.992;2024-03-23T14:17:35;16.20;;;11.30;;
65871;SDS011;52653;50.080;21.992;2024-03-23T14:20:08;14.60;;;11.20;;
65871;SDS011;52653;50.080;21.992;2024-03-23T14:22:41;16.10;;;11.60;;
65871;SDS011;52653;50.080;21.992;2024-03-23T14:25:13;17.50;;;11.50;;
65871;SDS011;52653;50.080;21.992;2024-03-23T14:27:48;14.90;;;11.90;;
65871;SDS011;52653;50.080;21.992;2024-03-23T14:30:20;25.20;;;17.40;;
65871;SDS011;52653;50.080;21.992;2024-03-23T14:32:52;31.90;;;24.30;;
65871;SDS011;52653;50.080;21.992;2024-03-23T14:35:24;15.10;;;11.70;;
65871;SDS011;52653;50.080;21.992;2024-03-23T14:37:55;14.70;;;11.60;;
65871;SDS011;52653;50.080;21.992;2024-03-23T14:40:27;13.90;;;11.60;;
65871;SDS011;52653;50.080;21.992;2024-03-23T14:42:59;27.80;;;20.10;;
65871;SDS011;52653;50.080;21.992;2024-03-23T14:45:31;35.80;;;26.70;;
65871;SDS011;52653;50.080;21.992;2024-03-23T14:48:13;21.90;;;17.10;;
65871;SDS011;52653;50.080;21.992;2024-03-23T14:50:56;16.50;;;13.40;;
65871;SDS011;52653;50.080;21.992;2024-03-23T14:53:29;17.00;;;13.20;;
65871;SDS011;52653;50.080;21.992;2024-03-23T14:56:06;20.10;;;14.10;;
65871;SDS011;52653;50.080;21.992;2024-03-23T14:58:43;18.20;;;14.10;;
65871;SDS011;52653;50.080;21.992;2024-03-23T15:01:16;18.20;;;15.10;;
65871;SDS011;52653;50.080;21.992;2024-03-23T15:04:01;19.20;;;14.40;;
65871;SDS011;52653;50.080;21.992;2024-03-23T15:06:53;18.90;;;14.50;;
65871;SDS011;52653;50.080;21.992;2024-03-23T15:09:30;19.40;;;14.40;;
65871;SDS011;52653;50.080;21.992;2024-03-23T15:12:02;17.80;;;15.80;;
65871;SDS011;52653;50.080;21.992;2024-03-23T15:14:38;21.20;;;17.30;;
65871;SDS011;52653;50.080;21.992;2024-03-23T15:17:10;20.30;;;16.90;;
65871;SDS011;52653;50.080;21.992;2024-03-23T15:20:02;19.60;;;17.20;;
65871;SDS011;52653;50.080;21.992;2024-03-23T15:22:54;20.30;;;16.60;;
65871;SDS011;52653;50.080;21.992;2024-03-23T15:25:36;20.20;;;16.10;;
65871;SDS011;52653;50.080;21.992;2024-03-23T15:28:11;19.10;;;15.50;;
65871;SDS011;52653;50.080;21.992;2024-03-23T15:30:43;21.70;;;15.50;;
65871;SDS011;52653;50.080;21.992;2024-03-23T15:33:17;19.20;;;16.70;;
65871;SDS011;52653;50.080;21.992;2024-03-23T15:35:49;22.50;;;15.80;;
65871;SDS011;52653;50.080;21.992;2024-03-23T15:38:23;20.30;;;16.60;;
65871;SDS011;52653;50.080;21.992;2024-03-23T15:41:15;21.40;;;17.20;;
65871;SDS011;52653;50.080;21.992;2024-03-23T15:43:54;22.60;;;16.70;;
65871;SDS011;52653;50.080;21.992;2024-03-23T15:46:29;22.00;;;16.50;;